sensor_id;sensor_type;location;lat;lon;timestamp;pressure;altitude;pressure_sealevel;temperature;humidity
54554;BME280;40450;55.848;-3.572;2023-05-24T00:01:30;100402.64;;;12.38;75.59
54554;BME280;40450;55.848;-3.572;2023-05-24T00:04:00;100400.42;;;11.83;77.03
54554;BME280;40450;55.848;-3.572;2023-05-24T00:06:31;100398.64;;;12.50;75.64
54554;BME280;40450;55.848;-3.572;2023-05-24T00:09:01;100396.38;;;12.82;75.44
54554;BME280;40450;55.848;-3.572;2023-05-24T00:11:31;100399.17;;;12.00;77.06
54554;BME280;40450;55.848;-3.572;2023-05-24T00:14:02;100403.63;;;12.72;75.00
54554;BME280;40450;55.848;-3.572;2023-05-24T00:16:32;100399.31;;;13.40;74.47
54554;BME280;40450;55.848;-3.572;2023-05-24T00:19:03;100390.24;;;11.59;77.91
54554;BME280;40450;55.848;-3.572;2023-05-24T00:21:33;100386.24;;;11.82;76.88
54554;BME280;40450;55.848;-3.572;2023-05-24T00:24:04;100386.46;;;12.18;75.99
54554;BME280;40450;55.848;-3.572;2023-05-24T00:26:34;100382.02;;;11.53;77.90
54554;BME280;40450;55.848;-3.572;2023-05-24T00:29:04;100390.79;;;10.27;81.54
54554;BME280;40450;55.848;-3.572;2023-05-24T00:31:35;100383.22;;;11.33;79.34
54554;BME280;40450;55.848;-3.572;2023-05-24T00:34:05;100378.47;;;11.80;78.25
54554;BME280;40450;55.848;-3.572;2023-05-24T00:36:35;100374.78;;;12.14;76.94
54554;BME280;40450;55.848;-3.572;2023-05-24T00:39:05;100379.87;;;12.68;75.56
54554;BME280;40450;55.848;-3.572;2023-05-24T00:41:35;100376.12;;;11.51;77.41
54554;BME280;40450;55.848;-3.572;2023-05-24T00:44:06;100373.83;;;12.35;75.84
54554;BME280;40450;55.848;-3.572;2023-05-24T00:46:37;100373.81;;;11.26;78.38
54554;BME280;40450;55.848;-3.572;2023-05-24T00:49:07;100384.28;;;10.98;79.37
54554;BME280;40450;55.848;-3.572;2023-05-24T00:51:37;100376.94;;;11.01;79.12
54554;BME280;40450;55.848;-3.572;2023-05-24T00:54:08;100382.93;;;11.06;79.35
54554;BME280;40450;55.848;-3.572;2023-05-24T00:56:38;100381.40;;;11.07;78.96
54554;BME280;40450;55.848;-3.572;2023-05-24T00:59:08;100385.88;;;10.97;79.03
54554;BME280;40450;55.848;-3.572;2023-05-24T01:01:39;100384.62;;;11.33;78.51
54554;BME280;40450;55.848;-3.572;2023-05-24T01:04:09;100379.93;;;11.38;78.07
54554;BME280;40450;55.848;-3.572;2023-05-24T01:06:50;100382.91;;;11.67;77.00
54554;BME280;40450;55.848;-3.572;2023-05-24T01:09:19;100380.75;;;12.01;76.04
54554;BME280;40450;55.848;-3.572;2023-05-24T01:11:55;100382.76;;;12.25;75.43
54554;BME280;40450;55.848;-3.572;2023-05-24T01:14:17;100387.18;;;12.14;75.44
54554;BME280;40450;55.848;-3.572;2023-05-24T01:16:48;100388.85;;;11.92;75.68
54554;BME280;40450;55.848;-3.572;2023-05-24T01:21:49;100384.42;;;11.90;75.64
54554;BME280;40450;55.848;-3.572;2023-05-24T01:24:21;100378.08;;;11.70;75.98
54554;BME280;40450;55.848;-3.572;2023-05-24T01:29:14;100371.76;;;11.21;78.03
54554;BME280;40450;55.848;-3.572;2023-05-24T01:31:44;100380.91;;;11.24;77.73
54554;BME280;40450;55.848;-3.572;2023-05-24T01:34:14;100373.86;;;11.39;77.67
54554;BME280;40450;55.848;-3.572;2023-05-24T01:36:44;100366.47;;;10.93;78.55
54554;BME280;40450;55.848;-3.572;2023-05-24T01:39:15;100362.63;;;9.90;81.77
54554;BME280;40450;55.848;-3.572;2023-05-24T01:41:50;100356.19;;;9.52;83.53
54554;BME280;40450;55.848;-3.572;2023-05-24T01:44:22;100360.92;;;8.57;86.67
54554;BME280;40450;55.848;-3.572;2023-05-24T01:46:52;100364.97;;;8.94;85.66
54554;BME280;40450;55.848;-3.572;2023-05-24T01:49:21;100360.45;;;9.39;84.63
54554;BME280;40450;55.848;-3.572;2023-05-24T01:51:50;100361.00;;;9.87;83.29
54554;BME280;40450;55.848;-3.572;2023-05-24T01:54:20;100365.84;;;10.51;81.51
54554;BME280;40450;55.848;-3.572;2023-05-24T01:56:51;100362.37;;;10.25;81.84
54554;BME280;40450;55.848;-3.572;2023-05-24T01:59:19;100367.54;;;10.57;80.97
54554;BME280;40450;55.848;-3.572;2023-05-24T02:01:49;100373.78;;;10.17;81.95
54554;BME280;40450;55.848;-3.572;2023-05-24T02:04:20;100370.72;;;9.50;83.50
54554;BME280;40450;55.848;-3.572;2023-05-24T02:06:50;100361.58;;;9.45;83.94
54554;BME280;40450;55.848;-3.572;2023-05-24T02:09:20;100350.43;;;9.04;84.78
54554;BME280;40450;55.848;-3.572;2023-05-24T02:11:51;100355.43;;;7.91;88.42
54554;BME280;40450;55.848;-3.572;2023-05-24T02:14:21;100355.45;;;8.11;87.89
54554;BME280;40450;55.848;-3.572;2023-05-24T02:16:52;100347.30;;;8.58;86.53
54554;BME280;40450;55.848;-3.572;2023-05-24T02:19:22;100349.30;;;9.64;84.52
54554;BME280;40450;55.848;-3.572;2023-05-24T02:21:52;100346.92;;;9.15;84.59
54554;BME280;40450;55.848;-3.572;2023-05-24T02:24:23;100350.42;;;9.46;83.67
54554;BME280;40450;55.848;-3.572;2023-05-24T02:26:53;100338.65;;;9.19;84.01
54554;BME280;40450;55.848;-3.572;2023-05-24T02:29:23;100329.28;;;9.25;83.81
54554;BME280;40450;55.848;-3.572;2023-05-24T02:31:54;100340.93;;;9.52;83.47
54554;BME280;40450;55.848;-3.572;2023-05-24T02:34:24;100354.56;;;9.76;82.58
54554;BME280;40450;55.848;-3.572;2023-05-24T02:36:54;100365.17;;;9.81;81.88
54554;BME280;40450;55.848;-3.572;2023-05-24T02:39:24;100358.69;;;9.67;81.92
54554;BME280;40450;55.848;-3.572;2023-05-24T02:41:55;100354.03;;;9.62;82.31
54554;BME280;40450;55.848;-3.572;2023-05-24T02:44:25;100352.48;;;10.05;81.31
54554;BME280;40450;55.848;-3.572;2023-05-24T02:46:56;100361.21;;;10.37;80.30
54554;BME280;40450;55.848;-3.572;2023-05-24T02:49:26;100359.33;;;10.70;79.39
54554;BME280;40450;55.848;-3.572;2023-05-24T02:51:56;100365.73;;;10.51;79.44
54554;BME280;40450;55.848;-3.572;2023-05-24T02:54:26;100362.23;;;8.69;84.79
54554;BME280;40450;55.848;-3.572;2023-05-24T02:56:57;100357.20;;;8.39;86.00
54554;BME280;40450;55.848;-3.572;2023-05-24T02:59:27;100350.83;;;8.80;84.75
54554;BME280;40450;55.848;-3.572;2023-05-24T03:01:57;100342.92;;;8.78;85.04
54554;BME280;40450;55.848;-3.572;2023-05-24T03:04:27;100343.89;;;9.49;83.55
54554;BME280;40450;55.848;-3.572;2023-05-24T03:06:58;100343.90;;;10.19;81.87
54554;BME280;40450;55.848;-3.572;2023-05-24T03:09:28;100341.94;;;10.73;80.91
54554;BME280;40450;55.848;-3.572;2023-05-24T03:11:58;100355.09;;;10.30;80.46
54554;BME280;40450;55.848;-3.572;2023-05-24T03:14:29;100359.12;;;10.23;81.34
54554;BME280;40450;55.848;-3.572;2023-05-24T03:16:59;100360.50;;;10.86;79.65
54554;BME280;40450;55.848;-3.572;2023-05-24T03:19:29;100361.34;;;11.37;78.16
54554;BME280;40450;55.848;-3.572;2023-05-24T03:22:00;100356.04;;;11.52;76.71
54554;BME280;40450;55.848;-3.572;2023-05-24T03:24:30;100352.86;;;11.38;77.41
54554;BME280;40450;55.848;-3.572;2023-05-24T03:27:01;100355.29;;;10.83;78.32
54554;BME280;40450;55.848;-3.572;2023-05-24T03:29:31;100349.70;;;10.33;79.58
54554;BME280;40450;55.848;-3.572;2023-05-24T03:32:01;100338.46;;;10.36;79.55
54554;BME280;40450;55.848;-3.572;2023-05-24T03:34:32;100335.92;;;10.35;80.07
54554;BME280;40450;55.848;-3.572;2023-05-24T03:37:02;100338.76;;;10.01;81.19
54554;BME280;40450;55.848;-3.572;2023-05-24T03:39:32;100337.89;;;9.52;82.54
54554;BME280;40450;55.848;-3.572;2023-05-24T03:42:03;100343.61;;;9.14;83.66
54554;BME280;40450;55.848;-3.572;2023-05-24T03:44:32;100339.56;;;9.02;83.99
54554;BME280;40450;55.848;-3.572;2023-05-24T03:47:03;100347.74;;;9.48;82.65
54554;BME280;40450;55.848;-3.572;2023-05-24T03:49:33;100353.03;;;10.24;81.06
54554;BME280;40450;55.848;-3.572;2023-05-24T03:52:03;100357.62;;;10.72;79.61
54554;BME280;40450;55.848;-3.572;2023-05-24T03:54:33;100359.18;;;10.86;78.75
54554;BME280;40450;55.848;-3.572;2023-05-24T03:57:04;100358.88;;;10.27;80.10
54554;BME280;40450;55.848;-3.572;2023-05-24T03:59:34;100360.58;;;10.25;80.41
54554;BME280;40450;55.848;-3.572;2023-05-24T04:02:05;100358.01;;;10.57;79.60
54554;BME280;40450;55.848;-3.572;2023-05-24T04:04:35;100351.23;;;10.88;78.18
54554;BME280;40450;55.848;-3.572;2023-05-24T04:07:05;100353.27;;;10.59;79.52
54554;BME280;40450;55.848;-3.572;2023-05-24T04:09:36;100358.28;;;10.33;79.82
54554;BME280;40450;55.848;-3.572;2023-05-24T04:12:06;100354.41;;;10.21;80.64
54554;BME280;40450;55.848;-3.572;2023-05-24T04:14:36;100355.70;;;9.65;82.35
54554;BME280;40450;55.848;-3.572;2023-05-24T04:17:07;100354.93;;;9.16;83.95
54554;BME280;40450;55.848;-3.572;2023-05-24T04:19:37;100359.06;;;9.04;84.28
54554;BME280;40450;55.848;-3.572;2023-05-24T04:22:07;100362.09;;;9.25;83.75
54554;BME280;40450;55.848;-3.572;2023-05-24T04:24:38;100357.90;;;8.89;84.76
54554;BME280;40450;55.848;-3.572;2023-05-24T04:27:08;100363.36;;;9.26;83.80
54554;BME280;40450;55.848;-3.572;2023-05-24T04:29:40;100365.50;;;8.66;85.52
54554;BME280;40450;55.848;-3.572;2023-05-24T04:32:10;100372.42;;;8.28;86.56
54554;BME280;40450;55.848;-3.572;2023-05-24T04:34:40;100367.86;;;8.58;85.43
54554;BME280;40450;55.848;-3.572;2023-05-24T04:37:11;100368.65;;;9.28;85.00
54554;BME280;40450;55.848;-3.572;2023-05-24T04:39:41;100368.31;;;8.85;85.50
54554;BME280;40450;55.848;-3.572;2023-05-24T04:42:11;100364.14;;;9.38;84.05
54554;BME280;40450;55.848;-3.572;2023-05-24T04:44:42;100369.89;;;8.81;85.49
54554;BME280;40450;55.848;-3.572;2023-05-24T04:47:12;100365.93;;;9.56;83.94
54554;BME280;40450;55.848;-3.572;2023-05-24T04:49:42;100364.84;;;10.34;81.61
54554;BME280;40450;55.848;-3.572;2023-05-24T04:52:12;100361.49;;;10.56;81.92
54554;BME280;40450;55.848;-3.572;2023-05-24T04:54:42;100360.24;;;10.78;81.01
54554;BME280;40450;55.848;-3.572;2023-05-24T04:57:13;100362.14;;;10.66;81.54
54554;BME280;40450;55.848;-3.572;2023-05-24T04:59:44;100365.03;;;10.73;81.62
54554;BME280;40450;55.848;-3.572;2023-05-24T05:02:14;100373.48;;;11.24;79.94
54554;BME280;40450;55.848;-3.572;2023-05-24T05:04:44;100368.76;;;11.01;80.47
54554;BME280;40450;55.848;-3.572;2023-05-24T05:07:14;100367.24;;;11.61;78.25
54554;BME280;40450;55.848;-3.572;2023-05-24T05:09:45;100369.61;;;11.43;78.25
54554;BME280;40450;55.848;-3.572;2023-05-24T05:12:15;100363.98;;;11.11;78.85
54554;BME280;40450;55.848;-3.572;2023-05-24T05:14:45;100360.83;;;11.59;78.06
54554;BME280;40450;55.848;-3.572;2023-05-24T05:17:16;100359.71;;;11.07;79.04
54554;BME280;40450;55.848;-3.572;2023-05-24T05:19:46;100360.32;;;10.91;79.16
54554;BME280;40450;55.848;-3.572;2023-05-24T05:22:16;100363.54;;;11.28;78.51
54554;BME280;40450;55.848;-3.572;2023-05-24T05:24:47;100370.05;;;11.31;78.29
54554;BME280;40450;55.848;-3.572;2023-05-24T05:27:17;100378.26;;;10.77;80.26
54554;BME280;40450;55.848;-3.572;2023-05-24T05:29:47;100379.65;;;11.50;78.91
54554;BME280;40450;55.848;-3.572;2023-05-24T05:32:17;100388.29;;;11.80;77.70
54554;BME280;40450;55.848;-3.572;2023-05-24T05:34:48;100386.73;;;11.62;77.93
54554;BME280;40450;55.848;-3.572;2023-05-24T05:37:19;100391.60;;;12.04;77.16
54554;BME280;40450;55.848;-3.572;2023-05-24T05:39:49;100392.47;;;12.28;76.99
54554;BME280;40450;55.848;-3.572;2023-05-24T05:42:19;100399.16;;;12.57;75.14
54554;BME280;40450;55.848;-3.572;2023-05-24T05:44:49;100400.01;;;12.31;75.66
54554;BME280;40450;55.848;-3.572;2023-05-24T05:47:20;100390.56;;;13.12;74.94
54554;BME280;40450;55.848;-3.572;2023-05-24T05:49:50;100384.94;;;13.26;74.46
54554;BME280;40450;55.848;-3.572;2023-05-24T05:52:20;100381.14;;;12.83;73.41
54554;BME280;40450;55.848;-3.572;2023-05-24T05:54:51;100380.07;;;12.90;74.04
54554;BME280;40450;55.848;-3.572;2023-05-24T05:57:21;100388.94;;;12.10;75.06
54554;BME280;40450;55.848;-3.572;2023-05-24T05:59:51;100393.09;;;12.65;73.79
54554;BME280;40450;55.848;-3.572;2023-05-24T06:02:21;100401.58;;;12.25;74.71
54554;BME280;40450;55.848;-3.572;2023-05-24T06:04:51;100412.46;;;10.61;78.62
54554;BME280;40450;55.848;-3.572;2023-05-24T06:07:22;100417.93;;;8.28;85.23
54554;BME280;40450;55.848;-3.572;2023-05-24T06:09:52;100412.97;;;10.54;79.88
54554;BME280;40450;55.848;-3.572;2023-05-24T06:12:23;100418.23;;;8.94;83.62
54554;BME280;40450;55.848;-3.572;2023-05-24T06:14:53;100419.58;;;9.88;81.62
54554;BME280;40450;55.848;-3.572;2023-05-24T06:17:24;100417.10;;;10.87;78.16
54554;BME280;40450;55.848;-3.572;2023-05-24T06:19:54;100421.33;;;11.01;78.18
54554;BME280;40450;55.848;-3.572;2023-05-24T06:22:24;100426.61;;;10.72;78.88
54554;BME280;40450;55.848;-3.572;2023-05-24T06:24:54;100425.95;;;9.58;81.57
54554;BME280;40450;55.848;-3.572;2023-05-24T06:27:24;100440.59;;;9.65;81.03
54554;BME280;40450;55.848;-3.572;2023-05-24T06:29:54;100439.61;;;9.67;81.56
54554;BME280;40450;55.848;-3.572;2023-05-24T06:32:25;100444.08;;;9.85;82.09
54554;BME280;40450;55.848;-3.572;2023-05-24T06:34:55;100435.26;;;11.27;79.18
54554;BME280;40450;55.848;-3.572;2023-05-24T06:37:26;100434.63;;;9.64;82.71
54554;BME280;40450;55.848;-3.572;2023-05-24T06:39:56;100439.84;;;10.86;79.91
54554;BME280;40450;55.848;-3.572;2023-05-24T06:42:27;100436.37;;;10.10;80.97
54554;BME280;40450;55.848;-3.572;2023-05-24T06:44:57;100435.41;;;11.93;76.94
54554;BME280;40450;55.848;-3.572;2023-05-24T06:47:27;100443.43;;;10.81;78.95
54554;BME280;40450;55.848;-3.572;2023-05-24T06:49:58;100453.03;;;10.77;79.55
54554;BME280;40450;55.848;-3.572;2023-05-24T06:52:28;100445.69;;;11.48;77.40
54554;BME280;40450;55.848;-3.572;2023-05-24T06:54:58;100439.89;;;11.94;75.90
54554;BME280;40450;55.848;-3.572;2023-05-24T06:57:29;100431.70;;;12.46;73.20
54554;BME280;40450;55.848;-3.572;2023-05-24T06:59:59;100437.70;;;11.95;75.24
54554;BME280;40450;55.848;-3.572;2023-05-24T07:02:30;100444.06;;;11.41;75.31
54554;BME280;40450;55.848;-3.572;2023-05-24T07:05:00;100438.33;;;12.56;73.45
54554;BME280;40450;55.848;-3.572;2023-05-24T07:07:30;100431.32;;;13.04;72.34
54554;BME280;40450;55.848;-3.572;2023-05-24T07:10:01;100433.65;;;12.36;72.24
54554;BME280;40450;55.848;-3.572;2023-05-24T07:12:31;100437.14;;;13.15;70.71
54554;BME280;40450;55.848;-3.572;2023-05-24T07:15:02;100437.40;;;12.30;72.70
54554;BME280;40450;55.848;-3.572;2023-05-24T07:17:32;100444.74;;;12.48;71.36
54554;BME280;40450;55.848;-3.572;2023-05-24T07:20:04;100438.66;;;11.82;73.29
54554;BME280;40450;55.848;-3.572;2023-05-24T07:22:33;100444.94;;;12.47;72.33
54554;BME280;40450;55.848;-3.572;2023-05-24T07:25:05;100449.13;;;13.04;70.31
54554;BME280;40450;55.848;-3.572;2023-05-24T07:27:34;100450.33;;;12.23;72.06
54554;BME280;40450;55.848;-3.572;2023-05-24T07:30:06;100456.75;;;11.59;74.01
54554;BME280;40450;55.848;-3.572;2023-05-24T07:32:34;100453.08;;;12.12;72.46
54554;BME280;40450;55.848;-3.572;2023-05-24T07:35:10;100453.51;;;12.25;72.94
54554;BME280;40450;55.848;-3.572;2023-05-24T07:37:35;100458.31;;;12.51;71.07
54554;BME280;40450;55.848;-3.572;2023-05-24T07:40:07;100472.50;;;10.57;77.67
54554;BME280;40450;55.848;-3.572;2023-05-24T07:42:36;100465.14;;;11.86;74.58
54554;BME280;40450;55.848;-3.572;2023-05-24T07:45:08;100470.54;;;11.78;74.10
54554;BME280;40450;55.848;-3.572;2023-05-24T07:47:37;100478.43;;;12.88;72.72
54554;BME280;40450;55.848;-3.572;2023-05-24T07:50:08;100476.45;;;12.65;70.85
54554;BME280;40450;55.848;-3.572;2023-05-24T07:52:37;100474.39;;;12.50;72.36
54554;BME280;40450;55.848;-3.572;2023-05-24T07:55:08;100478.05;;;12.84;71.09
54554;BME280;40450;55.848;-3.572;2023-05-24T07:57:37;100484.63;;;13.22;70.90
54554;BME280;40450;55.848;-3.572;2023-05-24T08:00:08;100492.13;;;11.25;74.93
54554;BME280;40450;55.848;-3.572;2023-05-24T08:02:38;100489.23;;;12.85;71.15
54554;BME280;40450;55.848;-3.572;2023-05-24T08:05:10;100498.34;;;9.35;81.21
54554;BME280;40450;55.848;-3.572;2023-05-24T08:07:38;100499.75;;;10.71;78.21
54554;BME280;40450;55.848;-3.572;2023-05-24T08:10:09;100500.69;;;10.29;81.94
54554;BME280;40450;55.848;-3.572;2023-05-24T08:12:39;100508.79;;;11.07;77.20
54554;BME280;40450;55.848;-3.572;2023-05-24T08:15:10;100497.10;;;11.35;76.09
54554;BME280;40450;55.848;-3.572;2023-05-24T08:17:40;100487.59;;;12.18;73.76
54554;BME280;40450;55.848;-3.572;2023-05-24T08:20:10;100494.13;;;10.66;78.67
54554;BME280;40450;55.848;-3.572;2023-05-24T08:22:41;100492.81;;;9.74;81.95
54554;BME280;40450;55.848;-3.572;2023-05-24T08:25:11;100493.89;;;7.81;87.97
54554;BME280;40450;55.848;-3.572;2023-05-24T08:27:41;100498.95;;;8.46;87.13
54554;BME280;40450;55.848;-3.572;2023-05-24T08:30:12;100491.46;;;11.31;80.38
54554;BME280;40450;55.848;-3.572;2023-05-24T08:32:42;100492.52;;;10.49;80.57
54554;BME280;40450;55.848;-3.572;2023-05-24T08:35:12;100489.74;;;10.09;82.12
54554;BME280;40450;55.848;-3.572;2023-05-24T08:37:42;100492.19;;;9.91;83.91
54554;BME280;40450;55.848;-3.572;2023-05-24T08:40:13;100488.54;;;10.98;81.51
54554;BME280;40450;55.848;-3.572;2023-05-24T08:42:44;100493.36;;;11.47;78.63
54554;BME280;40450;55.848;-3.572;2023-05-24T08:45:14;100488.99;;;11.99;76.22
54554;BME280;40450;55.848;-3.572;2023-05-24T08:47:44;100496.51;;;10.31;82.19
54554;BME280;40450;55.848;-3.572;2023-05-24T08:50:14;100499.05;;;8.43;86.85
54554;BME280;40450;55.848;-3.572;2023-05-24T08:52:45;100503.72;;;9.04;86.18
54554;BME280;40450;55.848;-3.572;2023-05-24T08:55:15;100511.23;;;8.79;87.29
54554;BME280;40450;55.848;-3.572;2023-05-24T08:57:45;100513.88;;;8.57;89.20
54554;BME280;40450;55.848;-3.572;2023-05-24T09:00:16;100507.44;;;11.59;82.03
54554;BME280;40450;55.848;-3.572;2023-05-24T09:02:45;100513.28;;;9.38;87.33
54554;BME280;40450;55.848;-3.572;2023-05-24T09:05:16;100510.80;;;9.59;86.82
54554;BME280;40450;55.848;-3.572;2023-05-24T09:07:48;100519.78;;;9.66;86.67
54554;BME280;40450;55.848;-3.572;2023-05-24T09:10:19;100518.20;;;11.65;80.56
54554;BME280;40450;55.848;-3.572;2023-05-24T09:12:52;100509.59;;;12.97;76.71
54554;BME280;40450;55.848;-3.572;2023-05-24T09:15:18;100509.58;;;13.09;74.70
54554;BME280;40450;55.848;-3.572;2023-05-24T09:17:48;100515.86;;;11.68;79.98
54554;BME280;40450;55.848;-3.572;2023-05-24T09:20:19;100519.10;;;9.80;85.20
54554;BME280;40450;55.848;-3.572;2023-05-24T09:22:51;100522.19;;;10.74;82.16
54554;BME280;40450;55.848;-3.572;2023-05-24T09:25:19;100522.82;;;11.04;82.44
54554;BME280;40450;55.848;-3.572;2023-05-24T09:27:50;100514.25;;;11.96;79.71
54554;BME280;40450;55.848;-3.572;2023-05-24T09:30:20;100515.65;;;11.51;79.71
54554;BME280;40450;55.848;-3.572;2023-05-24T09:32:55;100508.54;;;12.28;78.62
54554;BME280;40450;55.848;-3.572;2023-05-24T09:35:21;100506.90;;;12.26;76.88
54554;BME280;40450;55.848;-3.572;2023-05-24T09:37:53;100507.37;;;12.65;76.89
54554;BME280;40450;55.848;-3.572;2023-05-24T09:40:22;100510.07;;;10.51;83.28
54554;BME280;40450;55.848;-3.572;2023-05-24T09:43:01;100495.90;;;12.91;77.09
54554;BME280;40450;55.848;-3.572;2023-05-24T09:45:23;100499.08;;;13.52;75.90
54554;BME280;40450;55.848;-3.572;2023-05-24T09:47:53;100505.10;;;14.30;73.44
54554;BME280;40450;55.848;-3.572;2023-05-24T09:50:25;100502.66;;;14.45;72.18
54554;BME280;40450;55.848;-3.572;2023-05-24T09:52:53;100506.59;;;13.50;72.53
54554;BME280;40450;55.848;-3.572;2023-05-24T09:55:27;100509.82;;;12.03;77.52
54554;BME280;40450;55.848;-3.572;2023-05-24T09:58:03;100513.50;;;12.26;77.30
54554;BME280;40450;55.848;-3.572;2023-05-24T10:00:33;100510.63;;;12.41;76.52
54554;BME280;40450;55.848;-3.572;2023-05-24T10:03:01;100524.34;;;11.84;79.40
54554;BME280;40450;55.848;-3.572;2023-05-24T10:05:34;100523.11;;;10.35;83.90
54554;BME280;40450;55.848;-3.572;2023-05-24T10:08:04;100519.78;;;12.09;79.92
54554;BME280;40450;55.848;-3.572;2023-05-24T10:10:34;100519.64;;;13.66;74.34
54554;BME280;40450;55.848;-3.572;2023-05-24T10:13:04;100517.71;;;12.92;78.28
54554;BME280;40450;55.848;-3.572;2023-05-24T10:15:35;100528.79;;;11.11;81.70
54554;BME280;40450;55.848;-3.572;2023-05-24T10:18:02;100520.03;;;13.94;75.36
54554;BME280;40450;55.848;-3.572;2023-05-24T10:20:27;100516.86;;;14.10;71.67
54554;BME280;40450;55.848;-3.572;2023-05-24T10:22:59;100525.19;;;12.49;76.39
54554;BME280;40450;55.848;-3.572;2023-05-24T10:25:28;100528.19;;;13.32;74.60
54554;BME280;40450;55.848;-3.572;2023-05-24T10:28:01;100528.50;;;13.93;74.31
54554;BME280;40450;55.848;-3.572;2023-05-24T10:30:31;100529.88;;;15.09;71.78
54554;BME280;40450;55.848;-3.572;2023-05-24T10:33:00;100517.73;;;16.17;67.94
54554;BME280;40450;55.848;-3.572;2023-05-24T10:35:29;100524.00;;;15.09;69.90
54554;BME280;40450;55.848;-3.572;2023-05-24T10:38:04;100529.00;;;15.51;67.41
54554;BME280;40450;55.848;-3.572;2023-05-24T10:40:31;100525.05;;;14.06;71.69
54554;BME280;40450;55.848;-3.572;2023-05-24T10:43:03;100522.65;;;14.83;70.59
54554;BME280;40450;55.848;-3.572;2023-05-24T10:45:32;100519.48;;;14.42;70.40
54554;BME280;40450;55.848;-3.572;2023-05-24T10:48:07;100520.88;;;13.89;72.83
54554;BME280;40450;55.848;-3.572;2023-05-24T10:50:31;100521.01;;;15.02;70.07
54554;BME280;40450;55.848;-3.572;2023-05-24T10:55:33;100520.11;;;15.06;70.75
54554;BME280;40450;55.848;-3.572;2023-05-24T10:58:05;100526.08;;;14.35;71.37
54554;BME280;40450;55.848;-3.572;2023-05-24T11:00:33;100524.98;;;13.10;75.38
54554;BME280;40450;55.848;-3.572;2023-05-24T11:03:07;100521.51;;;14.72;72.04
54554;BME280;40450;55.848;-3.572;2023-05-24T11:05:47;100524.69;;;14.49;71.35
54554;BME280;40450;55.848;-3.572;2023-05-24T11:08:08;100531.10;;;13.75;73.39
54554;BME280;40450;55.848;-3.572;2023-05-24T11:10:34;100523.09;;;14.30;72.83
54554;BME280;40450;55.848;-3.572;2023-05-24T11:13:09;100521.00;;;15.15;70.51
54554;BME280;40450;55.848;-3.572;2023-05-24T11:15:48;100515.87;;;14.88;71.75
54554;BME280;40450;55.848;-3.572;2023-05-24T11:18:13;100521.84;;;14.21;73.36
54554;BME280;40450;55.848;-3.572;2023-05-24T11:20:35;100517.88;;;14.34;74.50
54554;BME280;40450;55.848;-3.572;2023-05-24T11:23:05;100515.98;;;14.43;73.81
54554;BME280;40450;55.848;-3.572;2023-05-24T11:25:40;100515.99;;;14.87;72.30
54554;BME280;40450;55.848;-3.572;2023-05-24T11:28:11;100515.22;;;14.93;70.57
54554;BME280;40450;55.848;-3.572;2023-05-24T11:30:38;100510.65;;;15.38;70.06
54554;BME280;40450;55.848;-3.572;2023-05-24T11:33:14;100508.08;;;15.55;69.99
54554;BME280;40450;55.848;-3.572;2023-05-24T11:35:42;100506.67;;;15.17;71.66
54554;BME280;40450;55.848;-3.572;2023-05-24T11:38:09;100500.25;;;15.15;70.67
54554;BME280;40450;55.848;-3.572;2023-05-24T11:40:44;100495.11;;;15.92;68.54
54554;BME280;40450;55.848;-3.572;2023-05-24T11:43:14;100517.09;;;15.28;70.37
54554;BME280;40450;55.848;-3.572;2023-05-24T11:45:40;100519.92;;;14.26;73.50
54554;BME280;40450;55.848;-3.572;2023-05-24T11:48:15;100526.07;;;13.36;77.13
54554;BME280;40450;55.848;-3.572;2023-05-24T11:50:46;100528.70;;;12.68;79.24
54554;BME280;40450;55.848;-3.572;2023-05-24T11:53:17;100531.23;;;12.10;82.44
54554;BME280;40450;55.848;-3.572;2023-05-24T11:55:46;100531.52;;;13.38;78.69
54554;BME280;40450;55.848;-3.572;2023-05-24T11:58:21;100539.31;;;13.54;77.78
54554;BME280;40450;55.848;-3.572;2023-05-24T12:00:47;100536.27;;;12.94;79.36
54554;BME280;40450;55.848;-3.572;2023-05-24T12:03:17;100541.76;;;12.00;82.68
54554;BME280;40450;55.848;-3.572;2023-05-24T12:05:43;100537.60;;;10.76;87.49
54554;BME280;40450;55.848;-3.572;2023-05-24T12:08:17;100535.42;;;11.64;84.19
54554;BME280;40450;55.848;-3.572;2023-05-24T12:10:48;100538.21;;;11.34;86.47
54554;BME280;40450;55.848;-3.572;2023-05-24T12:13:20;100526.49;;;12.53;83.97
54554;BME280;40450;55.848;-3.572;2023-05-24T12:15:43;100526.80;;;14.64;78.84
54554;BME280;40450;55.848;-3.572;2023-05-24T12:18:18;100527.58;;;15.35;74.92
54554;BME280;40450;55.848;-3.572;2023-05-24T12:20:48;100525.68;;;15.34;74.44
54554;BME280;40450;55.848;-3.572;2023-05-24T12:23:14;100527.34;;;15.44;72.90
54554;BME280;40450;55.848;-3.572;2023-05-24T12:25:49;100517.15;;;13.54;78.00
54554;BME280;40450;55.848;-3.572;2023-05-24T12:28:19;100512.30;;;13.97;78.28
54554;BME280;40450;55.848;-3.572;2023-05-24T12:30:44;100517.61;;;15.09;75.64
54554;BME280;40450;55.848;-3.572;2023-05-24T12:33:20;100521.59;;;14.24;75.54
54554;BME280;40450;55.848;-3.572;2023-05-24T12:35:50;100515.90;;;14.19;76.82
54554;BME280;40450;55.848;-3.572;2023-05-24T12:38:22;100514.06;;;13.99;76.62
54554;BME280;40450;55.848;-3.572;2023-05-24T12:40:51;100511.70;;;14.44;77.18
54554;BME280;40450;55.848;-3.572;2023-05-24T12:43:21;100516.50;;;15.52;72.37
54554;BME280;40450;55.848;-3.572;2023-05-24T12:45:51;100518.68;;;14.60;75.99
54554;BME280;40450;55.848;-3.572;2023-05-24T12:48:22;100516.24;;;14.13;77.70
54554;BME280;40450;55.848;-3.572;2023-05-24T12:50:52;100515.85;;;15.55;74.04
54554;BME280;40450;55.848;-3.572;2023-05-24T12:53:22;100520.55;;;14.06;76.96
54554;BME280;40450;55.848;-3.572;2023-05-24T12:55:53;100516.16;;;14.74;75.51
54554;BME280;40450;55.848;-3.572;2023-05-24T12:58:18;100511.58;;;15.64;73.27
54554;BME280;40450;55.848;-3.572;2023-05-24T13:00:53;100510.88;;;17.22;66.42
54554;BME280;40450;55.848;-3.572;2023-05-24T13:03:19;100511.91;;;16.32;68.89
54554;BME280;40450;55.848;-3.572;2023-05-24T13:05:54;100524.04;;;15.42;71.54